Aviation Digital Data Service (ADDS)

Output produced by TAFs form (1119 UTC 24 April 2017)
found at http://www.aviationweather.gov/adds/tafs/
 
METAR text: RJCM 241100Z VRB01KT 9999 FEW020 SCT/// 04/M02 Q1024
Conditions at: RJCM (MEMAMBETSU AIRPO, JP) observed 1100 UTC 24 April 2017
Temperature: 4.0°C (39°F)
Dewpoint: -2.0°C (28°F) [RH = 65%]
Pressure (altimeter): 30.24 inches Hg (1024.0 mb)
Winds: variable direction winds at 1 MPH (1 knots; 0.5 m/s)
Visibility: 6 or more miles (10+ km)
Ceiling: at least 12,000 feet AGL
Clouds: few clouds at 2000 feet AGL
Weather: no significant weather observed at this time

Forecast for: RJCM (MEMAMBETSU AIRPO, JP)
Text: TAF RJCM 240520Z 2406/2512 06008KT 9999 FEW040
Forecast period: 0600 to 0900 UTC 24 April 2017
Forecast type: FROM: standard forecast or significant change
Winds: from the ENE (60 degrees) at 9 MPH (8 knots; 4.2 m/s)
Visibility: 6 or more miles (10+ km)
Clouds: few clouds at 4000 feet AGL
Weather: no significant weather forecast for this period
Text: BECMG 2409/2411 20005KT
Forecast period: 0900 UTC 24 April 2017 to 1200 UTC 25 April 2017
Forecast type: BECOMING: Conditions expected to become as follows by 1100 UTC 24 April 2017
Winds: from the SSW (200 degrees) at 6 MPH (5 knots; 2.6 m/s)
Visibility: 6 or more miles (10+ km)
Clouds: few clouds at 4000 feet AGL
Weather: no significant weather forecast for this period